createdAt,value
2023-06-07T00:00:12.626Z,47.71
2023-06-07T00:02:44.027Z,47.62
2023-06-07T00:05:14.322Z,47.95
2023-06-07T00:07:42.414Z,48.07
2023-06-07T00:10:12.521Z,48.07
2023-06-07T00:12:40.374Z,48.17
2023-06-07T00:15:09.180Z,48.65
2023-06-07T00:17:38.840Z,48.38
2023-06-07T00:20:10.099Z,48.39
2023-06-07T00:22:40.019Z,48.25
2023-06-07T00:25:09.696Z,48.47
2023-06-07T00:27:38.949Z,48.52
2023-06-07T00:30:08.345Z,48.59
2023-06-07T00:32:36.120Z,48.78
2023-06-07T00:35:04.020Z,49.11
2023-06-07T00:37:31.772Z,48.90
2023-06-07T00:39:59.620Z,48.80
2023-06-07T00:42:27.465Z,49.54
2023-06-07T00:44:56.638Z,50.16
2023-06-07T00:47:24.567Z,49.68
2023-06-07T00:49:52.541Z,49.55
2023-06-07T00:52:20.516Z,49.42
2023-06-07T00:54:48.889Z,50.35
2023-06-07T00:57:18.599Z,49.85
2023-06-07T00:59:46.554Z,50.50
2023-06-07T01:02:16.599Z,50.47
2023-06-07T01:04:44.697Z,50.87
2023-06-07T01:07:13.682Z,50.19
2023-06-07T01:09:41.556Z,49.99
2023-06-07T01:12:15.001Z,50.73
2023-06-07T01:14:44.620Z,50.31
2023-06-07T01:17:14.013Z,50.24
2023-06-07T01:19:44.604Z,50.63
2023-06-07T01:22:13.093Z,50.79
2023-06-07T01:24:43.529Z,50.77
2023-06-07T01:27:12.359Z,50.83
2023-06-07T01:29:40.590Z,51.08
2023-06-07T01:32:10.866Z,51.39
2023-06-07T01:34:39.103Z,50.98
2023-06-07T01:37:07.357Z,51.28
2023-06-07T01:39:35.443Z,51.42
2023-06-07T01:42:05.324Z,51.26
2023-06-07T01:44:33.571Z,51.34
2023-06-07T01:47:01.383Z,51.70
2023-06-07T01:49:29.202Z,51.32
2023-06-07T01:51:57.010Z,51.87
2023-06-07T01:54:25.025Z,51.75
2023-06-07T01:57:06.249Z,51.90
2023-06-07T01:59:40.998Z,51.89
2023-06-07T02:02:15.695Z,51.94
2023-06-07T02:04:47.170Z,52.19
2023-06-07T02:07:19.700Z,51.59
2023-06-07T02:09:49.121Z,52.15
2023-06-07T02:12:17.638Z,52.19
2023-06-07T02:14:47.194Z,51.97
2023-06-07T02:17:15.111Z,51.90
2023-06-07T02:19:45.191Z,51.91
2023-06-07T02:22:14.485Z,51.72
2023-06-07T02:24:42.555Z,52.05
2023-06-07T02:27:10.552Z,51.86
2023-06-07T02:29:38.400Z,52.53
2023-06-07T02:32:09.345Z,51.82
2023-06-07T02:34:37.347Z,52.24
2023-06-07T02:37:05.412Z,51.95
2023-06-07T02:39:33.266Z,52.24
2023-06-07T02:42:01.091Z,52.33
2023-06-07T02:44:29.335Z,52.45
2023-06-07T02:46:57.252Z,51.95
2023-06-07T02:49:26.433Z,52.00
2023-06-07T02:51:54.230Z,51.85
2023-06-07T02:54:22.072Z,51.95
2023-06-07T02:56:49.855Z,51.81
2023-06-07T02:59:17.651Z,52.22
2023-06-07T03:01:45.482Z,52.37
2023-06-07T03:04:13.280Z,52.45
2023-06-07T03:06:43.237Z,52.51
2023-06-07T03:09:11.014Z,52.73
2023-06-07T03:11:38.873Z,52.83
2023-06-07T03:14:06.701Z,52.56
2023-06-07T03:16:34.799Z,52.82
2023-06-07T03:19:02.634Z,52.81
2023-06-07T03:21:30.414Z,52.99
2023-06-07T03:23:59.674Z,53.34
2023-06-07T03:26:27.596Z,53.32
2023-06-07T03:28:55.918Z,53.69
2023-06-07T03:31:24.626Z,53.80
2023-06-07T03:33:52.647Z,53.89
2023-06-07T03:36:22.155Z,53.93
2023-06-07T03:38:50.000Z,53.97
2023-06-07T03:41:19.120Z,53.62
2023-06-07T03:43:46.924Z,54.12
2023-06-07T03:46:14.749Z,54.49
2023-06-07T03:48:42.633Z,54.51
2023-06-07T03:51:10.548Z,54.30
2023-06-07T03:53:38.402Z,54.21
2023-06-07T03:56:07.325Z,54.05
2023-06-07T03:58:37.216Z,54.20
2023-06-07T04:01:04.963Z,54.28
2023-06-07T04:03:32.957Z,54.10
2023-06-07T04:06:00.863Z,54.18
2023-06-07T04:08:28.952Z,54.09
2023-06-07T04:10:56.828Z,54.48
2023-06-07T04:13:24.667Z,54.64
2023-06-07T04:15:53.837Z,54.77
2023-06-07T04:18:21.636Z,54.32
2023-06-07T04:20:49.400Z,53.83
2023-06-07T04:23:17.239Z,53.75
2023-06-07T04:25:45.112Z,53.97
2023-06-07T04:28:13.376Z,54.03
2023-06-07T04:30:43.350Z,54.03
2023-06-07T04:33:14.715Z,54.07
2023-06-07T04:35:43.899Z,54.27
2023-06-07T04:38:12.976Z,53.95
2023-06-07T04:40:42.318Z,54.08
2023-06-07T04:43:12.251Z,54.00
2023-06-07T04:45:42.707Z,54.25
2023-06-07T04:48:13.022Z,54.06
2023-06-07T04:50:42.400Z,54.22
2023-06-07T04:53:11.985Z,53.41
2023-06-07T04:55:42.901Z,53.21
2023-06-07T04:58:10.959Z,52.00
2023-06-07T05:00:40.415Z,51.47
2023-06-07T05:03:09.522Z,50.63
2023-06-07T05:05:39.169Z,50.95
2023-06-07T05:08:07.611Z,50.41
2023-06-07T05:10:35.492Z,50.47
2023-06-07T05:13:03.353Z,50.92
2023-06-07T05:15:32.401Z,50.33
2023-06-07T05:18:00.822Z,50.40
2023-06-07T05:20:28.901Z,51.01
2023-06-07T05:22:58.445Z,50.77
2023-06-07T05:25:26.425Z,50.89
2023-06-07T05:28:08.217Z,51.18
2023-06-07T05:30:41.000Z,50.83
2023-06-07T05:33:09.002Z,51.72
2023-06-07T05:35:36.904Z,50.91
2023-06-07T05:38:06.067Z,51.04
2023-06-07T05:40:33.829Z,50.98
2023-06-07T05:43:01.683Z,50.95
2023-06-07T05:45:31.027Z,50.89
2023-06-07T05:47:59.029Z,49.90
2023-06-07T05:50:27.138Z,50.39
2023-06-07T05:52:57.694Z,49.65
2023-06-07T05:55:28.165Z,49.71
2023-06-07T05:57:56.440Z,50.25
2023-06-07T06:00:25.012Z,50.17
2023-06-07T06:02:54.492Z,50.66
2023-06-07T06:05:28.527Z,50.97
2023-06-07T06:07:57.663Z,51.75
2023-06-07T06:10:27.212Z,50.30
2023-06-07T06:12:56.815Z,49.68
2023-06-07T06:15:24.784Z,49.25
2023-06-07T06:17:55.458Z,49.25
2023-06-07T06:20:23.877Z,50.39
2023-06-07T06:22:51.722Z,50.45
2023-06-07T06:25:19.680Z,49.43
2023-06-07T06:27:48.880Z,49.82
2023-06-07T06:30:17.112Z,49.59
2023-06-07T06:32:45.002Z,49.53
2023-06-07T06:35:12.854Z,48.79
2023-06-07T06:37:40.636Z,48.40
2023-06-07T06:40:09.978Z,47.34
2023-06-07T06:42:38.445Z,48.48
2023-06-07T06:45:09.449Z,48.54
2023-06-07T06:47:42.492Z,48.19
2023-06-07T06:50:29.951Z,47.98
2023-06-07T06:52:59.080Z,47.36
2023-06-07T06:55:26.917Z,47.11
2023-06-07T06:57:54.744Z,46.94
2023-06-07T07:00:24.692Z,47.32
2023-06-07T07:02:52.707Z,47.37
2023-06-07T07:05:20.855Z,47.61
2023-06-07T07:07:48.805Z,47.31
2023-06-07T07:10:19.390Z,47.40
2023-06-07T07:12:47.258Z,47.01
2023-06-07T07:15:15.115Z,47.16
2023-06-07T07:17:47.628Z,46.81
2023-06-07T07:20:16.220Z,46.95
2023-06-07T07:22:45.216Z,46.04
2023-06-07T07:25:13.704Z,46.18
2023-06-07T07:27:41.559Z,46.99
2023-06-07T07:30:11.047Z,47.41
2023-06-07T07:32:39.980Z,46.56
2023-06-07T07:35:09.691Z,46.85
2023-06-07T07:37:41.542Z,47.35
2023-06-07T07:40:11.016Z,46.38
2023-06-07T07:42:39.725Z,46.79
2023-06-07T07:45:08.868Z,48.08
2023-06-07T07:47:36.729Z,48.44
2023-06-07T07:50:06.135Z,48.61
2023-06-07T07:52:35.474Z,48.14
2023-06-07T07:55:03.759Z,46.89
2023-06-07T07:57:31.958Z,46.68
2023-06-07T07:59:59.759Z,46.66
2023-06-07T08:02:27.635Z,46.29
2023-06-07T08:04:55.605Z,46.40
2023-06-07T08:07:24.092Z,46.15
2023-06-07T08:09:53.325Z,45.25
2023-06-07T08:12:21.131Z,45.48
2023-06-07T08:14:48.934Z,45.91
2023-06-07T08:17:16.763Z,46.24
2023-06-07T08:19:44.558Z,46.48
2023-06-07T08:22:12.394Z,45.74
2023-06-07T08:24:40.301Z,44.75
2023-06-07T08:27:10.084Z,44.40
2023-06-07T08:29:37.921Z,44.34
2023-06-07T08:32:06.472Z,44.16
2023-06-07T08:34:34.595Z,43.69
2023-06-07T08:37:02.842Z,43.91
2023-06-07T08:39:30.750Z,43.62
2023-06-07T08:41:58.567Z,43.57
2023-06-07T08:44:27.819Z,42.11
2023-06-07T08:46:57.177Z,41.64
2023-06-07T08:49:27.914Z,40.66
2023-06-07T08:52:07.247Z,39.55
2023-06-07T08:54:44.014Z,39.58
2023-06-07T08:57:12.181Z,40.39
2023-06-07T08:59:43.129Z,40.62
2023-06-07T09:02:11.081Z,41.09
2023-06-07T09:04:41.501Z,41.23
2023-06-07T09:07:09.359Z,40.51
2023-06-07T09:09:37.536Z,40.96
2023-06-07T09:12:06.724Z,41.46
2023-06-07T09:14:34.750Z,41.74
2023-06-07T09:17:04.559Z,41.16
2023-06-07T09:19:34.942Z,41.78
2023-06-07T09:22:03.613Z,40.91
2023-06-07T09:24:32.565Z,41.78
2023-06-07T09:27:01.983Z,41.86
2023-06-07T09:29:30.442Z,42.31
2023-06-07T09:32:00.444Z,42.40
2023-06-07T09:34:31.573Z,41.30
2023-06-07T09:37:00.646Z,41.43
2023-06-07T09:39:30.140Z,41.28
2023-06-07T09:41:58.671Z,40.62
2023-06-07T09:44:28.075Z,40.00
2023-06-07T09:46:56.168Z,39.68
2023-06-07T09:49:25.662Z,40.47
2023-06-07T09:51:55.582Z,40.71
2023-06-07T09:54:37.796Z,40.84
2023-06-07T09:57:09.939Z,40.11
2023-06-07T09:59:38.582Z,38.57
2023-06-07T10:02:25.139Z,39.12
2023-06-07T10:04:57.299Z,39.15
2023-06-07T10:07:31.720Z,39.78
2023-06-07T10:10:00.468Z,40.28
2023-06-07T10:12:30.253Z,40.80
2023-06-07T10:14:58.699Z,39.88
2023-06-07T10:17:30.863Z,40.20
2023-06-07T10:20:01.638Z,39.68
2023-06-07T10:22:35.304Z,38.21
2023-06-07T10:25:05.417Z,38.42
2023-06-07T10:27:41.648Z,37.75
2023-06-07T10:30:13.300Z,37.66
2023-06-07T10:32:41.314Z,37.49
2023-06-07T10:35:12.820Z,38.10
2023-06-07T10:37:44.952Z,38.87
2023-06-07T10:40:16.101Z,38.69
2023-06-07T10:42:45.518Z,39.73
2023-06-07T10:45:16.552Z,39.49
2023-06-07T10:47:44.761Z,39.03
2023-06-07T10:50:46.332Z,38.59
2023-06-07T10:53:15.807Z,39.00
2023-06-07T10:55:43.595Z,39.54
2023-06-07T10:58:31.106Z,40.28
2023-06-07T11:01:02.408Z,42.07
2023-06-07T11:03:42.985Z,42.41
2023-06-07T11:06:11.714Z,42.02
2023-06-07T11:08:41.035Z,41.20
2023-06-07T11:11:54.329Z,40.94
2023-06-07T11:14:22.156Z,38.99
2023-06-07T11:16:50.005Z,37.57
2023-06-07T11:19:20.056Z,36.14
2023-06-07T11:22:11.568Z,36.23
2023-06-07T11:24:40.852Z,34.63
2023-06-07T11:27:15.426Z,34.09
2023-06-07T11:29:44.899Z,34.98
2023-06-07T11:32:13.084Z,35.80
2023-06-07T11:34:41.103Z,36.72
2023-06-07T11:37:10.468Z,36.39
2023-06-07T11:39:38.271Z,36.38
2023-06-07T11:42:08.265Z,36.16
2023-06-07T11:44:39.459Z,35.15
2023-06-07T11:47:08.484Z,35.06
2023-06-07T11:49:39.606Z,36.99
2023-06-07T11:52:08.428Z,37.38
2023-06-07T11:54:36.444Z,38.45
2023-06-07T11:57:04.562Z,38.46
2023-06-07T11:59:33.936Z,38.18
2023-06-07T12:02:01.926Z,37.73
2023-06-07T12:04:29.777Z,38.99
2023-06-07T12:06:57.615Z,39.11
2023-06-07T12:09:25.390Z,38.89
2023-06-07T12:11:54.735Z,37.20
2023-06-07T12:14:34.373Z,35.89
2023-06-07T12:17:03.589Z,34.37
2023-06-07T12:19:31.559Z,33.15
2023-06-07T12:22:07.448Z,32.65
2023-06-07T12:24:40.044Z,32.04
2023-06-07T12:27:13.195Z,31.30
2023-06-07T12:29:43.156Z,32.26
2023-06-07T12:32:11.933Z,33.11
2023-06-07T12:34:45.628Z,33.41
2023-06-07T12:37:14.169Z,33.63
2023-06-07T12:39:42.087Z,33.61
2023-06-07T12:42:09.920Z,32.64
2023-06-07T12:44:38.333Z,33.26
2023-06-07T12:47:08.487Z,32.43
2023-06-07T12:49:36.507Z,32.53
2023-06-07T12:52:05.998Z,32.17
2023-06-07T12:54:33.840Z,32.74
2023-06-07T12:57:01.685Z,32.84
2023-06-07T12:59:29.484Z,34.06
2023-06-07T13:01:57.298Z,35.19
2023-06-07T13:04:28.048Z,36.07
2023-06-07T13:06:57.091Z,35.70
2023-06-07T13:09:25.636Z,35.90
2023-06-07T13:11:55.147Z,35.17
2023-06-07T13:14:22.988Z,35.36
2023-06-07T13:16:50.803Z,35.24
2023-06-07T13:19:18.650Z,35.82
2023-06-07T13:21:47.883Z,36.24
2023-06-07T13:24:15.973Z,34.86
2023-06-07T13:26:44.205Z,34.00
2023-06-07T13:29:12.233Z,32.76
2023-06-07T13:31:40.084Z,32.50
2023-06-07T13:34:08.620Z,32.74
2023-06-07T13:36:38.003Z,33.04
2023-06-07T13:39:07.279Z,32.53
2023-06-07T13:41:39.379Z,32.48
2023-06-07T13:44:17.363Z,33.11
2023-06-07T13:46:46.273Z,33.41
2023-06-07T13:49:15.107Z,32.83
2023-06-07T13:51:43.136Z,32.49
2023-06-07T13:54:12.481Z,31.71
2023-06-07T13:56:40.396Z,30.73
2023-06-07T13:59:08.287Z,28.84
2023-06-07T14:01:36.891Z,29.58
2023-06-07T14:04:05.081Z,29.77
2023-06-07T14:06:32.970Z,29.16
2023-06-07T14:09:00.877Z,30.78
2023-06-07T14:11:31.345Z,33.53
2023-06-07T14:13:59.189Z,33.68
2023-06-07T14:16:28.629Z,33.73
2023-06-07T14:18:56.821Z,34.09
2023-06-07T14:21:24.700Z,34.44
2023-06-07T14:23:52.554Z,34.80
2023-06-07T14:26:21.025Z,34.65
2023-06-07T14:28:50.373Z,35.05
2023-06-07T14:31:20.347Z,34.99
2023-06-07T14:33:48.202Z,35.31
2023-06-07T14:36:17.378Z,35.34
2023-06-07T14:38:45.296Z,35.76
2023-06-07T14:41:13.620Z,35.91
2023-06-07T14:43:41.401Z,36.55
2023-06-07T14:46:10.624Z,36.43
2023-06-07T14:48:38.456Z,35.21
2023-06-07T14:51:06.293Z,33.60
2023-06-07T14:53:34.112Z,33.04
2023-06-07T14:56:01.913Z,32.45
2023-06-07T14:58:29.814Z,32.17
2023-06-07T15:00:57.701Z,32.55
2023-06-07T15:03:26.964Z,31.64
2023-06-07T15:05:54.861Z,32.11
2023-06-07T15:08:22.643Z,34.07
2023-06-07T15:10:50.429Z,35.14
2023-06-07T15:13:19.243Z,35.07
2023-06-07T15:15:47.138Z,34.92
2023-06-07T15:18:16.760Z,34.74
2023-06-07T15:20:46.072Z,35.02
2023-06-07T15:23:13.878Z,35.25
2023-06-07T15:25:42.047Z,35.12
2023-06-07T15:28:09.900Z,34.96
2023-06-07T15:30:37.743Z,33.73
2023-06-07T15:33:05.909Z,34.27
2023-06-07T15:35:33.841Z,34.13
2023-06-07T15:38:03.125Z,34.30
2023-06-07T15:40:31.230Z,35.79
2023-06-07T15:42:59.138Z,36.72
2023-06-07T15:45:28.220Z,37.02
2023-06-07T15:48:02.797Z,37.09
2023-06-07T15:50:31.615Z,37.55
2023-06-07T15:53:00.442Z,38.05
2023-06-07T15:55:29.630Z,39.16
2023-06-07T15:57:57.678Z,39.84
2023-06-07T16:00:37.614Z,40.65
2023-06-07T16:03:07.055Z,41.06
2023-06-07T16:05:35.668Z,41.73
2023-06-07T16:08:12.538Z,42.24
2023-06-07T16:10:42.907Z,42.60
2023-06-07T16:13:10.809Z,42.84
2023-06-07T16:15:38.699Z,42.64
2023-06-07T16:18:07.015Z,43.31
2023-06-07T16:20:34.842Z,43.42
2023-06-07T16:23:02.697Z,43.85
2023-06-07T16:25:30.562Z,43.64
2023-06-07T16:27:59.700Z,43.66
2023-06-07T16:30:27.818Z,43.66
2023-06-07T16:32:55.983Z,43.65
2023-06-07T16:35:23.844Z,44.28
2023-06-07T16:37:51.609Z,52.21
2023-06-07T16:40:19.617Z,56.25
2023-06-07T16:42:47.471Z,57.98
2023-06-07T16:45:16.770Z,58.54
2023-06-07T16:47:44.566Z,59.57
2023-06-07T16:50:12.827Z,61.11
2023-06-07T16:52:40.718Z,62.65
2023-06-07T16:55:09.289Z,63.63
2023-06-07T16:57:39.957Z,62.94
2023-06-07T17:00:09.582Z,63.38
2023-06-07T17:02:38.884Z,63.37
2023-06-07T17:05:08.056Z,62.81
2023-06-07T17:07:36.284Z,62.93
2023-06-07T17:10:04.418Z,63.07
2023-06-07T17:12:32.591Z,63.44
2023-06-07T17:15:00.419Z,63.64
2023-06-07T17:17:28.316Z,63.87
2023-06-07T17:19:57.561Z,63.94
2023-06-07T17:22:25.774Z,64.45
2023-06-07T17:24:53.582Z,64.82
2023-06-07T17:27:21.366Z,65.04
2023-06-07T17:29:49.178Z,65.02
2023-06-07T17:32:17.015Z,64.75
2023-06-07T17:34:44.796Z,64.32
2023-06-07T17:37:17.876Z,63.91
2023-06-07T17:39:45.705Z,63.44
2023-06-07T17:42:16.957Z,63.41
2023-06-07T17:44:44.789Z,63.58
2023-06-07T17:47:14.500Z,63.07
2023-06-07T17:49:43.791Z,63.39
2023-06-07T17:52:21.583Z,63.73
2023-06-07T17:54:51.185Z,64.02
2023-06-07T17:57:18.951Z,64.12
2023-06-07T17:59:46.746Z,63.25
2023-06-07T18:02:14.550Z,63.41
2023-06-07T18:04:42.396Z,63.72
2023-06-07T18:07:10.156Z,63.35
2023-06-07T18:09:39.850Z,63.64
2023-06-07T18:12:11.380Z,64.27
2023-06-07T18:14:41.145Z,63.73
2023-06-07T18:17:09.429Z,63.96
2023-06-07T18:19:37.538Z,64.08
2023-06-07T18:22:06.267Z,64.00
2023-06-07T18:24:34.079Z,64.12
2023-06-07T18:27:03.631Z,64.34
2023-06-07T18:29:31.552Z,64.94
2023-06-07T18:31:59.440Z,64.78
2023-06-07T18:34:27.219Z,64.79
2023-06-07T18:36:55.049Z,64.58
2023-06-07T18:39:23.576Z,64.33
2023-06-07T18:41:52.053Z,64.93
2023-06-07T18:44:21.281Z,64.78
2023-06-07T18:46:49.406Z,64.43
2023-06-07T18:49:17.801Z,65.24
2023-06-07T18:51:45.681Z,64.66
2023-06-07T18:54:13.502Z,64.94
2023-06-07T18:56:41.536Z,65.09
2023-06-07T18:59:09.333Z,65.04
2023-06-07T19:01:51.382Z,65.64
2023-06-07T19:04:20.430Z,66.07
2023-06-07T19:06:51.564Z,66.02
2023-06-07T19:09:20.085Z,65.93
2023-06-07T19:11:48.074Z,66.70
2023-06-07T19:14:17.374Z,66.65
2023-06-07T19:16:47.156Z,67.03
2023-06-07T19:19:15.242Z,66.68
2023-06-07T19:21:43.062Z,67.72
2023-06-07T19:24:10.881Z,67.81
2023-06-07T19:26:38.719Z,67.05
2023-06-07T19:29:06.560Z,68.23
2023-06-07T19:31:34.886Z,67.90
2023-06-07T19:34:06.804Z,67.59
2023-06-07T19:36:34.658Z,68.07
2023-06-07T19:39:02.485Z,68.57
2023-06-07T19:41:30.338Z,67.85
2023-06-07T19:43:58.174Z,68.00
2023-06-07T19:46:25.968Z,68.75
2023-06-07T19:48:53.892Z,67.84
2023-06-07T19:51:23.947Z,68.63
2023-06-07T19:53:53.148Z,68.02
2023-06-07T19:56:21.274Z,67.96
2023-06-07T19:58:49.124Z,67.83
2023-06-07T20:01:16.980Z,68.04
2023-06-07T20:03:44.835Z,67.87
2023-06-07T20:06:12.794Z,67.86
2023-06-07T20:08:41.996Z,68.38
2023-06-07T20:11:09.818Z,67.44
2023-06-07T20:13:37.642Z,67.34
2023-06-07T20:16:06.043Z,67.82
2023-06-07T20:18:33.929Z,67.35
2023-06-07T20:21:01.788Z,67.47
2023-06-07T20:23:29.646Z,66.77
2023-06-07T20:25:58.964Z,66.20
2023-06-07T20:28:26.755Z,66.96
2023-06-07T20:30:54.556Z,66.55
2023-06-07T20:33:22.363Z,66.59
2023-06-07T20:35:50.193Z,65.98
2023-06-07T20:38:17.948Z,66.15
2023-06-07T20:40:45.766Z,66.10
2023-06-07T20:43:14.940Z,66.19
2023-06-07T20:45:43.644Z,65.79
2023-06-07T20:48:11.632Z,66.02
2023-06-07T20:50:39.576Z,65.33
2023-06-07T20:53:07.392Z,64.60
2023-06-07T20:55:36.517Z,64.59
2023-06-07T20:58:04.368Z,64.02
2023-06-07T21:00:33.513Z,63.32
2023-06-07T21:03:01.476Z,62.47
2023-06-07T21:05:29.341Z,63.18
2023-06-07T21:07:57.164Z,62.24
2023-06-07T21:10:24.991Z,62.37
2023-06-07T21:12:52.756Z,62.06
2023-06-07T21:15:20.648Z,62.77
2023-06-07T21:17:49.836Z,61.88
2023-06-07T21:20:18.500Z,61.59
2023-06-07T21:22:46.306Z,62.83
2023-06-07T21:25:14.186Z,61.90
2023-06-07T21:27:42.043Z,61.50
2023-06-07T21:30:10.453Z,61.01
2023-06-07T21:32:38.356Z,61.18
2023-06-07T21:35:08.931Z,61.50
2023-06-07T21:37:36.789Z,60.90
2023-06-07T21:40:05.319Z,60.81
2023-06-07T21:42:33.382Z,60.48
2023-06-07T21:45:01.376Z,60.82
2023-06-07T21:47:29.214Z,60.55
2023-06-07T21:49:58.524Z,60.92
2023-06-07T21:52:27.831Z,59.68
2023-06-07T21:54:56.036Z,59.75
2023-06-07T21:57:23.959Z,59.89
2023-06-07T21:59:51.769Z,58.80
2023-06-07T22:02:19.546Z,58.59
2023-06-07T22:04:47.476Z,58.03
2023-06-07T22:07:15.388Z,57.44
2023-06-07T22:09:45.682Z,57.81
2023-06-07T22:12:15.795Z,57.11
2023-06-07T22:14:44.415Z,57.12
2023-06-07T22:17:12.293Z,56.90
2023-06-07T22:19:41.881Z,57.44
2023-06-07T22:22:09.699Z,57.13
2023-06-07T22:24:37.492Z,56.81
2023-06-07T22:27:07.709Z,56.48
2023-06-07T22:29:35.615Z,57.06
2023-06-07T22:32:03.694Z,56.79
2023-06-07T22:34:31.511Z,56.38
2023-06-07T22:37:04.203Z,56.95
2023-06-07T22:39:32.060Z,57.04
2023-06-07T22:41:59.843Z,57.11
2023-06-07T22:44:29.035Z,57.14
2023-06-07T22:46:57.019Z,56.70
2023-06-07T22:49:30.302Z,57.19
2023-06-07T22:51:58.840Z,56.30
2023-06-07T22:54:28.717Z,56.36
2023-06-07T22:56:56.693Z,56.30
2023-06-07T22:59:24.820Z,55.41
2023-06-07T23:01:54.924Z,55.37
2023-06-07T23:04:22.893Z,55.66
2023-06-07T23:06:50.988Z,55.25
2023-06-07T23:09:19.163Z,55.18
2023-06-07T23:11:50.188Z,55.65
2023-06-07T23:14:19.115Z,55.88
2023-06-07T23:16:49.834Z,56.09
2023-06-07T23:19:20.446Z,56.18
2023-06-07T23:21:48.576Z,56.70
2023-06-07T23:24:22.386Z,56.46
2023-06-07T23:26:50.235Z,57.17
2023-06-07T23:29:18.132Z,57.38
2023-06-07T23:31:48.675Z,57.60
2023-06-07T23:34:16.745Z,57.45
2023-06-07T23:36:46.144Z,57.66
2023-06-07T23:39:14.036Z,57.74
2023-06-07T23:41:41.902Z,57.51
2023-06-07T23:44:24.386Z,57.98
2023-06-07T23:46:52.668Z,58.22
2023-06-07T23:49:20.619Z,58.37
2023-06-07T23:51:49.768Z,58.50
2023-06-07T23:54:17.672Z,59.42
2023-06-07T23:56:45.482Z,59.29
2023-06-07T23:59:13.293Z,58.44
